Lisbon, Ohio
Current Conditions -  °F | °C
As of 4:51 AM on Saturday 20 Dec 2014 (Local Time) from KPIT Reporting Station
Overcast Overcast  
Wind Chill: 22°   Ceiling: 2500
Heat Index: 27°   Visibility: 10mi
Dew Point: 20°   Wind: 5mph
Humidity: 75%   Direction: 30°NNE
Pressure: 30.24"   Gusts: NA
Location:  40.77°N, 80.77°W
Report Text: KPIT 200951Z 03004KT 10SM OVC025 M03/M07 A3024 RMK AO2 SLP264 T10281067
Loading
Personal Weather Stations






























Interactive Weather Map New forecast layout! Learn more

10-Day Weather Forecast

Advertisements
Track Severe Weather on mobile